Terminal Aerodrome Forecast
Issued by NWS

Home | Current Version | Previous Version | Text Only | Print | Product List | Glossary On
Versions: 1 2 3 4 5 6 7 8 9 10 11 12 13 14 15 16 17 18 19 20 21 22 23 24 25
849
FTUS41 KGYX 240903 AAA
TAFAUG
TAF AMD
KAUG 240903Z 2409/2506 31003KT P6SM SKC
     FM241300 35006KT P6SM FEW050 BKN250
     FM250000 15004KT P6SM OVC100=

USA.gov is the U.S. government's official web portal to all federal, state and local government web resources and services.